sensor_id;sensor_type;location;lat;lon;timestamp;P1;durP1;ratioP1;P2;durP2;ratioP2
55290;SDS011;41155;39.768;2.712;2024-03-02T00:02:24;35.25;;;27.77;;
55290;SDS011;41155;39.768;2.712;2024-03-02T00:04:50;37.58;;;26.75;;
55290;SDS011;41155;39.768;2.712;2024-03-02T00:07:16;38.05;;;23.88;;
55290;SDS011;41155;39.768;2.712;2024-03-02T00:09:42;36.13;;;28.00;;
55290;SDS011;41155;39.768;2.712;2024-03-02T00:12:09;37.50;;;27.20;;
55290;SDS011;41155;39.768;2.712;2024-03-02T00:14:41;39.25;;;28.17;;
55290;SDS011;41155;39.768;2.712;2024-03-02T00:17:08;35.17;;;24.58;;
55290;SDS011;41155;39.768;2.712;2024-03-02T00:19:51;23.25;;;18.88;;
55290;SDS011;41155;39.768;2.712;2024-03-02T00:22:17;21.30;;;18.33;;
55290;SDS011;41155;39.768;2.712;2024-03-02T00:24:45;15.70;;;11.63;;
55290;SDS011;41155;39.768;2.712;2024-03-02T00:27:12;23.58;;;14.27;;
55290;SDS011;41155;39.768;2.712;2024-03-02T00:29:40;23.58;;;15.15;;
55290;SDS011;41155;39.768;2.712;2024-03-02T00:32:16;16.23;;;14.05;;
55290;SDS011;41155;39.768;2.712;2024-03-02T00:34:42;25.95;;;17.77;;
55290;SDS011;41155;39.768;2.712;2024-03-02T00:37:08;20.95;;;16.65;;
55290;SDS011;41155;39.768;2.712;2024-03-02T00:39:34;33.58;;;17.15;;
55290;SDS011;41155;39.768;2.712;2024-03-02T00:42:00;26.58;;;16.67;;
55290;SDS011;41155;39.768;2.712;2024-03-02T00:44:26;33.17;;;16.20;;
55290;SDS011;41155;39.768;2.712;2024-03-02T00:46:52;21.45;;;12.45;;
55290;SDS011;41155;39.768;2.712;2024-03-02T00:49:20;21.80;;;13.07;;
55290;SDS011;41155;39.768;2.712;2024-03-02T00:51:48;16.35;;;13.55;;
55290;SDS011;41155;39.768;2.712;2024-03-02T00:54:21;23.00;;;14.45;;
55290;SDS011;41155;39.768;2.712;2024-03-02T00:56:49;19.00;;;13.52;;
55290;SDS011;41155;39.768;2.712;2024-03-02T00:59:15;16.27;;;14.15;;
55290;SDS011;41155;39.768;2.712;2024-03-02T01:01:41;18.00;;;13.43;;
55290;SDS011;41155;39.768;2.712;2024-03-02T01:04:07;18.52;;;10.30;;
55290;SDS011;41155;39.768;2.712;2024-03-02T01:06:32;18.02;;;11.50;;
55290;SDS011;41155;39.768;2.712;2024-03-02T01:08:58;28.38;;;15.07;;
55290;SDS011;41155;39.768;2.712;2024-03-02T01:11:24;20.23;;;12.85;;
55290;SDS011;41155;39.768;2.712;2024-03-02T01:13:50;12.65;;;9.35;;
55290;SDS011;41155;39.768;2.712;2024-03-02T01:16:16;15.65;;;11.57;;
55290;SDS011;41155;39.768;2.712;2024-03-02T01:18:42;21.38;;;16.92;;
55290;SDS011;41155;39.768;2.712;2024-03-02T01:21:08;18.98;;;12.82;;
55290;SDS011;41155;39.768;2.712;2024-03-02T01:23:33;14.82;;;10.90;;
55290;SDS011;41155;39.768;2.712;2024-03-02T01:25:59;14.73;;;13.20;;
55290;SDS011;41155;39.768;2.712;2024-03-02T01:28:24;11.85;;;10.75;;
55290;SDS011;41155;39.768;2.712;2024-03-02T01:30:50;15.40;;;11.23;;
55290;SDS011;41155;39.768;2.712;2024-03-02T01:33:16;15.57;;;10.90;;
55290;SDS011;41155;39.768;2.712;2024-03-02T01:35:43;15.90;;;13.30;;
55290;SDS011;41155;39.768;2.712;2024-03-02T01:38:08;22.58;;;12.75;;
55290;SDS011;41155;39.768;2.712;2024-03-02T01:40:34;28.52;;;21.10;;
55290;SDS011;41155;39.768;2.712;2024-03-02T01:43:01;20.08;;;16.20;;
55290;SDS011;41155;39.768;2.712;2024-03-02T01:45:27;29.00;;;15.55;;
55290;SDS011;41155;39.768;2.712;2024-03-02T01:47:53;20.00;;;14.13;;
55290;SDS011;41155;39.768;2.712;2024-03-02T01:50:28;19.33;;;14.90;;
55290;SDS011;41155;39.768;2.712;2024-03-02T01:52:55;21.13;;;15.00;;
55290;SDS011;41155;39.768;2.712;2024-03-02T01:55:21;21.58;;;16.30;;
55290;SDS011;41155;39.768;2.712;2024-03-02T01:57:47;24.77;;;16.63;;
55290;SDS011;41155;39.768;2.712;2024-03-02T02:00:14;24.40;;;16.80;;
55290;SDS011;41155;39.768;2.712;2024-03-02T02:02:40;20.50;;;17.70;;
55290;SDS011;41155;39.768;2.712;2024-03-02T02:05:06;22.77;;;18.67;;
55290;SDS011;41155;39.768;2.712;2024-03-02T02:07:31;25.30;;;16.40;;
55290;SDS011;41155;39.768;2.712;2024-03-02T02:09:58;22.67;;;18.77;;
55290;SDS011;41155;39.768;2.712;2024-03-02T02:12:23;32.85;;;19.20;;
55290;SDS011;41155;39.768;2.712;2024-03-02T02:14:49;25.50;;;17.83;;
55290;SDS011;41155;39.768;2.712;2024-03-02T02:17:18;21.92;;;17.63;;
55290;SDS011;41155;39.768;2.712;2024-03-02T02:19:44;23.60;;;18.05;;
55290;SDS011;41155;39.768;2.712;2024-03-02T02:22:10;29.80;;;19.77;;
55290;SDS011;41155;39.768;2.712;2024-03-02T02:24:35;22.00;;;15.82;;
55290;SDS011;41155;39.768;2.712;2024-03-02T02:27:01;18.20;;;13.45;;
55290;SDS011;41155;39.768;2.712;2024-03-02T02:29:27;23.48;;;13.63;;
55290;SDS011;41155;39.768;2.712;2024-03-02T02:31:52;19.05;;;15.20;;
55290;SDS011;41155;39.768;2.712;2024-03-02T02:34:17;17.42;;;13.98;;
55290;SDS011;41155;39.768;2.712;2024-03-02T02:36:43;20.48;;;13.65;;
55290;SDS011;41155;39.768;2.712;2024-03-02T02:39:10;16.73;;;14.55;;
55290;SDS011;41155;39.768;2.712;2024-03-02T02:41:38;19.35;;;16.15;;
55290;SDS011;41155;39.768;2.712;2024-03-02T02:44:04;40.97;;;25.60;;
55290;SDS011;41155;39.768;2.712;2024-03-02T02:46:30;34.03;;;25.58;;
55290;SDS011;41155;39.768;2.712;2024-03-02T02:48:56;29.63;;;22.45;;
55290;SDS011;41155;39.768;2.712;2024-03-02T02:51:21;21.88;;;16.00;;
55290;SDS011;41155;39.768;2.712;2024-03-02T02:53:47;27.40;;;17.90;;
55290;SDS011;41155;39.768;2.712;2024-03-02T02:56:12;27.92;;;20.10;;
55290;SDS011;41155;39.768;2.712;2024-03-02T02:58:40;22.70;;;16.38;;
55290;SDS011;41155;39.768;2.712;2024-03-02T03:01:09;20.75;;;16.83;;
55290;SDS011;41155;39.768;2.712;2024-03-02T03:03:34;20.40;;;15.52;;
55290;SDS011;41155;39.768;2.712;2024-03-02T03:06:00;17.52;;;15.73;;
55290;SDS011;41155;39.768;2.712;2024-03-02T03:08:25;18.52;;;14.23;;
55290;SDS011;41155;39.768;2.712;2024-03-02T03:10:51;20.05;;;14.98;;
55290;SDS011;41155;39.768;2.712;2024-03-02T03:13:16;21.10;;;15.73;;
55290;SDS011;41155;39.768;2.712;2024-03-02T03:15:42;18.38;;;13.35;;
55290;SDS011;41155;39.768;2.712;2024-03-02T03:18:08;18.05;;;15.40;;
55290;SDS011;41155;39.768;2.712;2024-03-02T03:20:35;18.77;;;14.50;;
55290;SDS011;41155;39.768;2.712;2024-03-02T03:23:01;19.73;;;14.15;;
55290;SDS011;41155;39.768;2.712;2024-03-02T03:25:27;20.42;;;15.90;;
55290;SDS011;41155;39.768;2.712;2024-03-02T03:27:52;21.63;;;14.93;;
55290;SDS011;41155;39.768;2.712;2024-03-02T03:30:18;25.65;;;14.20;;
55290;SDS011;41155;39.768;2.712;2024-03-02T03:32:43;15.00;;;13.27;;
55290;SDS011;41155;39.768;2.712;2024-03-02T03:35:09;35.50;;;14.50;;
55290;SDS011;41155;39.768;2.712;2024-03-02T03:37:35;23.70;;;14.10;;
55290;SDS011;41155;39.768;2.712;2024-03-02T03:40:04;21.67;;;14.73;;
55290;SDS011;41155;39.768;2.712;2024-03-02T03:42:35;18.60;;;14.48;;
55290;SDS011;41155;39.768;2.712;2024-03-02T03:45:01;18.00;;;14.88;;
55290;SDS011;41155;39.768;2.712;2024-03-02T03:47:26;28.13;;;19.05;;
55290;SDS011;41155;39.768;2.712;2024-03-02T03:49:52;18.90;;;15.73;;
55290;SDS011;41155;39.768;2.712;2024-03-02T03:52:17;23.60;;;16.85;;
55290;SDS011;41155;39.768;2.712;2024-03-02T03:54:43;20.67;;;15.98;;
55290;SDS011;41155;39.768;2.712;2024-03-02T03:57:09;17.13;;;13.73;;
55290;SDS011;41155;39.768;2.712;2024-03-02T03:59:38;19.90;;;14.52;;
55290;SDS011;41155;39.768;2.712;2024-03-02T04:02:03;16.50;;;14.88;;
55290;SDS011;41155;39.768;2.712;2024-03-02T04:04:29;24.02;;;17.30;;
55290;SDS011;41155;39.768;2.712;2024-03-02T04:06:55;22.60;;;19.80;;
55290;SDS011;41155;39.768;2.712;2024-03-02T04:09:23;25.17;;;21.13;;
55290;SDS011;41155;39.768;2.712;2024-03-02T04:11:49;25.95;;;19.38;;
55290;SDS011;41155;39.768;2.712;2024-03-02T04:14:14;20.15;;;16.17;;
55290;SDS011;41155;39.768;2.712;2024-03-02T04:16:40;25.80;;;17.23;;
55290;SDS011;41155;39.768;2.712;2024-03-02T04:19:05;21.52;;;17.83;;
55290;SDS011;41155;39.768;2.712;2024-03-02T04:21:31;23.02;;;19.15;;
55290;SDS011;41155;39.768;2.712;2024-03-02T04:23:56;22.20;;;17.50;;
55290;SDS011;41155;39.768;2.712;2024-03-02T04:26:25;26.40;;;18.00;;
55290;SDS011;41155;39.768;2.712;2024-03-02T04:28:51;28.55;;;17.42;;
55290;SDS011;41155;39.768;2.712;2024-03-02T04:31:17;19.33;;;16.77;;
55290;SDS011;41155;39.768;2.712;2024-03-02T04:33:43;25.02;;;17.33;;
55290;SDS011;41155;39.768;2.712;2024-03-02T04:36:08;20.73;;;16.63;;
55290;SDS011;41155;39.768;2.712;2024-03-02T04:38:37;19.42;;;17.08;;
55290;SDS011;41155;39.768;2.712;2024-03-02T04:41:06;19.40;;;17.30;;
55290;SDS011;41155;39.768;2.712;2024-03-02T04:43:32;20.15;;;16.95;;
55290;SDS011;41155;39.768;2.712;2024-03-02T04:45:58;22.08;;;15.68;;
55290;SDS011;41155;39.768;2.712;2024-03-02T04:48:25;20.73;;;15.18;;
55290;SDS011;41155;39.768;2.712;2024-03-02T04:50:50;21.67;;;16.80;;
55290;SDS011;41155;39.768;2.712;2024-03-02T04:53:16;17.65;;;14.80;;
55290;SDS011;41155;39.768;2.712;2024-03-02T04:55:42;21.67;;;15.55;;
55290;SDS011;41155;39.768;2.712;2024-03-02T04:58:08;19.63;;;16.67;;
55290;SDS011;41155;39.768;2.712;2024-03-02T05:00:34;21.52;;;16.15;;
55290;SDS011;41155;39.768;2.712;2024-03-02T05:03:00;18.38;;;16.35;;
55290;SDS011;41155;39.768;2.712;2024-03-02T05:05:26;24.13;;;17.25;;
55290;SDS011;41155;39.768;2.712;2024-03-02T05:07:51;29.83;;;18.48;;
55290;SDS011;41155;39.768;2.712;2024-03-02T05:10:17;22.63;;;17.65;;
55290;SDS011;41155;39.768;2.712;2024-03-02T05:12:43;21.98;;;14.60;;
55290;SDS011;41155;39.768;2.712;2024-03-02T05:15:08;31.20;;;13.65;;
55290;SDS011;41155;39.768;2.712;2024-03-02T05:17:38;32.72;;;13.02;;
55290;SDS011;41155;39.768;2.712;2024-03-02T05:20:05;25.08;;;14.45;;
55290;SDS011;41155;39.768;2.712;2024-03-02T05:22:33;30.17;;;17.33;;
55290;SDS011;41155;39.768;2.712;2024-03-02T05:24:59;24.52;;;15.38;;
55290;SDS011;41155;39.768;2.712;2024-03-02T05:27:26;26.92;;;13.57;;
55290;SDS011;41155;39.768;2.712;2024-03-02T05:29:52;26.92;;;15.73;;
55290;SDS011;41155;39.768;2.712;2024-03-02T05:32:17;26.08;;;15.60;;
55290;SDS011;41155;39.768;2.712;2024-03-02T05:34:43;14.90;;;13.30;;
55290;SDS011;41155;39.768;2.712;2024-03-02T05:37:08;23.45;;;13.35;;
55290;SDS011;41155;39.768;2.712;2024-03-02T05:39:34;21.65;;;14.20;;
55290;SDS011;41155;39.768;2.712;2024-03-02T05:41:59;17.52;;;12.32;;
55290;SDS011;41155;39.768;2.712;2024-03-02T05:44:25;20.75;;;13.95;;
55290;SDS011;41155;39.768;2.712;2024-03-02T05:46:50;16.38;;;12.93;;
55290;SDS011;41155;39.768;2.712;2024-03-02T05:49:16;18.75;;;13.43;;
55290;SDS011;41155;39.768;2.712;2024-03-02T05:51:41;25.02;;;13.00;;
55290;SDS011;41155;39.768;2.712;2024-03-02T05:54:07;31.92;;;17.02;;
55290;SDS011;41155;39.768;2.712;2024-03-02T05:56:32;16.48;;;13.30;;
55290;SDS011;41155;39.768;2.712;2024-03-02T05:58:58;22.88;;;15.25;;
55290;SDS011;41155;39.768;2.712;2024-03-02T06:01:39;20.00;;;13.73;;
55290;SDS011;41155;39.768;2.712;2024-03-02T06:04:05;19.20;;;12.88;;
55290;SDS011;41155;39.768;2.712;2024-03-02T06:06:32;23.65;;;14.75;;
55290;SDS011;41155;39.768;2.712;2024-03-02T06:09:01;43.80;;;20.25;;
55290;SDS011;41155;39.768;2.712;2024-03-02T06:11:36;21.77;;;16.55;;
55290;SDS011;41155;39.768;2.712;2024-03-02T06:14:03;18.17;;;14.05;;
55290;SDS011;41155;39.768;2.712;2024-03-02T06:16:29;28.90;;;15.07;;
55290;SDS011;41155;39.768;2.712;2024-03-02T06:18:55;18.90;;;14.88;;
55290;SDS011;41155;39.768;2.712;2024-03-02T06:21:23;24.17;;;12.57;;
55290;SDS011;41155;39.768;2.712;2024-03-02T06:23:48;27.27;;;15.15;;
55290;SDS011;41155;39.768;2.712;2024-03-02T06:26:14;33.13;;;18.48;;
55290;SDS011;41155;39.768;2.712;2024-03-02T06:28:40;29.02;;;17.27;;
55290;SDS011;41155;39.768;2.712;2024-03-02T06:31:05;16.73;;;13.35;;
55290;SDS011;41155;39.768;2.712;2024-03-02T06:33:31;20.77;;;17.30;;
55290;SDS011;41155;39.768;2.712;2024-03-02T06:35:56;36.97;;;19.73;;
55290;SDS011;41155;39.768;2.712;2024-03-02T06:38:22;22.42;;;17.23;;
55290;SDS011;41155;39.768;2.712;2024-03-02T06:40:48;16.10;;;11.85;;
55290;SDS011;41155;39.768;2.712;2024-03-02T06:43:13;23.73;;;15.75;;
55290;SDS011;41155;39.768;2.712;2024-03-02T06:45:39;22.85;;;15.68;;
55290;SDS011;41155;39.768;2.712;2024-03-02T06:48:05;23.02;;;17.02;;
55290;SDS011;41155;39.768;2.712;2024-03-02T06:50:31;18.10;;;16.05;;
55290;SDS011;41155;39.768;2.712;2024-03-02T06:52:57;32.42;;;17.08;;
55290;SDS011;41155;39.768;2.712;2024-03-02T06:55:22;26.90;;;17.30;;
55290;SDS011;41155;39.768;2.712;2024-03-02T06:57:49;24.23;;;18.17;;
55290;SDS011;41155;39.768;2.712;2024-03-02T07:00:15;23.35;;;15.27;;
55290;SDS011;41155;39.768;2.712;2024-03-02T07:02:42;22.15;;;15.23;;
55290;SDS011;41155;39.768;2.712;2024-03-02T07:05:08;29.15;;;16.15;;
55290;SDS011;41155;39.768;2.712;2024-03-02T07:07:34;27.80;;;16.60;;
55290;SDS011;41155;39.768;2.712;2024-03-02T07:10:02;22.40;;;12.95;;
55290;SDS011;41155;39.768;2.712;2024-03-02T07:12:32;27.00;;;13.57;;
55290;SDS011;41155;39.768;2.712;2024-03-02T07:14:58;28.40;;;18.67;;
55290;SDS011;41155;39.768;2.712;2024-03-02T07:17:30;23.60;;;17.15;;
55290;SDS011;41155;39.768;2.712;2024-03-02T07:19:56;32.97;;;18.98;;
55290;SDS011;41155;39.768;2.712;2024-03-02T07:22:22;27.13;;;19.50;;
55290;SDS011;41155;39.768;2.712;2024-03-02T07:24:48;27.38;;;16.95;;
55290;SDS011;41155;39.768;2.712;2024-03-02T07:27:14;20.25;;;15.75;;
55290;SDS011;41155;39.768;2.712;2024-03-02T07:29:40;35.92;;;22.73;;
55290;SDS011;41155;39.768;2.712;2024-03-02T07:32:07;27.17;;;18.75;;
55290;SDS011;41155;39.768;2.712;2024-03-02T07:34:33;32.00;;;19.52;;
55290;SDS011;41155;39.768;2.712;2024-03-02T07:36:59;34.92;;;21.65;;
55290;SDS011;41155;39.768;2.712;2024-03-02T07:39:24;37.95;;;21.30;;
55290;SDS011;41155;39.768;2.712;2024-03-02T07:41:54;34.08;;;21.98;;
55290;SDS011;41155;39.768;2.712;2024-03-02T07:44:19;36.55;;;23.02;;
55290;SDS011;41155;39.768;2.712;2024-03-02T07:46:45;39.65;;;24.83;;
55290;SDS011;41155;39.768;2.712;2024-03-02T07:49:11;34.92;;;24.60;;
55290;SDS011;41155;39.768;2.712;2024-03-02T07:51:40;56.38;;;31.52;;
55290;SDS011;41155;39.768;2.712;2024-03-02T07:54:06;35.85;;;26.80;;
55290;SDS011;41155;39.768;2.712;2024-03-02T07:56:32;34.10;;;19.00;;
55290;SDS011;41155;39.768;2.712;2024-03-02T07:58:57;31.35;;;23.67;;
55290;SDS011;41155;39.768;2.712;2024-03-02T08:01:29;31.27;;;23.77;;
55290;SDS011;41155;39.768;2.712;2024-03-02T08:03:59;36.25;;;26.00;;
55290;SDS011;41155;39.768;2.712;2024-03-02T08:06:28;30.63;;;21.65;;
55290;SDS011;41155;39.768;2.712;2024-03-02T08:08:54;31.77;;;19.80;;
55290;SDS011;41155;39.768;2.712;2024-03-02T08:11:21;26.88;;;22.52;;
55290;SDS011;41155;39.768;2.712;2024-03-02T08:13:47;50.45;;;24.85;;
55290;SDS011;41155;39.768;2.712;2024-03-02T08:16:13;31.77;;;22.75;;
55290;SDS011;41155;39.768;2.712;2024-03-02T08:18:40;34.50;;;26.48;;
55290;SDS011;41155;39.768;2.712;2024-03-02T08:21:05;30.25;;;22.92;;
55290;SDS011;41155;39.768;2.712;2024-03-02T08:23:33;29.45;;;21.05;;
55290;SDS011;41155;39.768;2.712;2024-03-02T08:25:59;39.90;;;19.52;;
55290;SDS011;41155;39.768;2.712;2024-03-02T08:28:24;20.30;;;15.48;;
55290;SDS011;41155;39.768;2.712;2024-03-02T08:30:50;27.42;;;14.50;;
55290;SDS011;41155;39.768;2.712;2024-03-02T08:33:15;16.63;;;13.48;;
55290;SDS011;41155;39.768;2.712;2024-03-02T08:35:40;15.32;;;11.07;;
55290;SDS011;41155;39.768;2.712;2024-03-02T08:38:06;26.27;;;15.05;;
55290;SDS011;41155;39.768;2.712;2024-03-02T08:40:31;33.50;;;20.02;;
55290;SDS011;41155;39.768;2.712;2024-03-02T08:42:57;19.80;;;15.35;;
55290;SDS011;41155;39.768;2.712;2024-03-02T08:45:22;11.18;;;10.02;;
55290;SDS011;41155;39.768;2.712;2024-03-02T08:47:48;20.48;;;14.98;;
55290;SDS011;41155;39.768;2.712;2024-03-02T08:50:14;41.80;;;20.38;;
55290;SDS011;41155;39.768;2.712;2024-03-02T08:52:39;31.88;;;19.90;;
55290;SDS011;41155;39.768;2.712;2024-03-02T08:55:05;28.23;;;20.75;;
55290;SDS011;41155;39.768;2.712;2024-03-02T08:57:32;32.97;;;19.60;;
55290;SDS011;41155;39.768;2.712;2024-03-02T08:59:58;24.13;;;18.52;;
55290;SDS011;41155;39.768;2.712;2024-03-02T09:02:24;25.15;;;16.58;;
55290;SDS011;41155;39.768;2.712;2024-03-02T09:04:50;12.73;;;7.15;;
55290;SDS011;41155;39.768;2.712;2024-03-02T09:07:15;11.52;;;7.10;;
55290;SDS011;41155;39.768;2.712;2024-03-02T09:09:40;17.65;;;6.75;;
55290;SDS011;41155;39.768;2.712;2024-03-02T09:12:06;13.88;;;5.38;;
55290;SDS011;41155;39.768;2.712;2024-03-02T09:14:32;13.63;;;5.95;;
55290;SDS011;41155;39.768;2.712;2024-03-02T09:16:58;10.07;;;5.70;;
55290;SDS011;41155;39.768;2.712;2024-03-02T09:19:24;22.27;;;7.20;;
55290;SDS011;41155;39.768;2.712;2024-03-02T09:21:49;12.57;;;5.13;;
55290;SDS011;41155;39.768;2.712;2024-03-02T09:24:15;17.83;;;5.93;;
55290;SDS011;41155;39.768;2.712;2024-03-02T09:26:43;10.63;;;5.63;;
55290;SDS011;41155;39.768;2.712;2024-03-02T09:29:09;15.20;;;5.40;;
55290;SDS011;41155;39.768;2.712;2024-03-02T09:31:39;9.77;;;5.35;;
55290;SDS011;41155;39.768;2.712;2024-03-02T09:34:05;10.45;;;5.45;;
55290;SDS011;41155;39.768;2.712;2024-03-02T09:36:31;12.48;;;5.68;;
55290;SDS011;41155;39.768;2.712;2024-03-02T09:38:56;11.45;;;5.65;;
55290;SDS011;41155;39.768;2.712;2024-03-02T09:41:22;13.77;;;5.78;;
55290;SDS011;41155;39.768;2.712;2024-03-02T09:43:48;7.32;;;5.20;;
55290;SDS011;41155;39.768;2.712;2024-03-02T09:46:14;11.65;;;6.80;;
55290;SDS011;41155;39.768;2.712;2024-03-02T09:48:40;15.93;;;7.30;;
55290;SDS011;41155;39.768;2.712;2024-03-02T09:51:06;15.88;;;6.60;;
55290;SDS011;41155;39.768;2.712;2024-03-02T09:53:34;9.15;;;6.22;;
55290;SDS011;41155;39.768;2.712;2024-03-02T09:55:59;10.30;;;6.43;;
55290;SDS011;41155;39.768;2.712;2024-03-02T09:58:25;12.38;;;6.03;;
55290;SDS011;41155;39.768;2.712;2024-03-02T10:00:51;6.95;;;5.53;;
55290;SDS011;41155;39.768;2.712;2024-03-02T10:03:18;8.25;;;5.38;;
55290;SDS011;41155;39.768;2.712;2024-03-02T10:05:43;11.65;;;6.13;;
55290;SDS011;41155;39.768;2.712;2024-03-02T10:08:09;11.77;;;5.88;;
55290;SDS011;41155;39.768;2.712;2024-03-02T10:10:35;12.35;;;6.28;;
55290;SDS011;41155;39.768;2.712;2024-03-02T10:13:08;9.15;;;5.82;;
55290;SDS011;41155;39.768;2.712;2024-03-02T10:15:35;8.85;;;5.57;;
55290;SDS011;41155;39.768;2.712;2024-03-02T10:18:02;12.32;;;5.53;;
55290;SDS011;41155;39.768;2.712;2024-03-02T10:20:38;9.35;;;5.95;;
55290;SDS011;41155;39.768;2.712;2024-03-02T10:23:09;9.38;;;6.15;;
55290;SDS011;41155;39.768;2.712;2024-03-02T10:25:39;8.02;;;5.55;;
55290;SDS011;41155;39.768;2.712;2024-03-02T10:28:05;7.30;;;5.82;;
55290;SDS011;41155;39.768;2.712;2024-03-02T10:30:31;13.38;;;5.68;;
55290;SDS011;41155;39.768;2.712;2024-03-02T10:33:03;10.85;;;5.80;;
55290;SDS011;41155;39.768;2.712;2024-03-02T10:35:30;6.60;;;5.28;;
55290;SDS011;41155;39.768;2.712;2024-03-02T10:38:01;7.95;;;5.47;;
55290;SDS011;41155;39.768;2.712;2024-03-02T10:40:29;14.38;;;5.60;;
55290;SDS011;41155;39.768;2.712;2024-03-02T10:42:55;7.75;;;5.80;;
55290;SDS011;41155;39.768;2.712;2024-03-02T10:45:21;7.78;;;5.05;;
55290;SDS011;41155;39.768;2.712;2024-03-02T10:47:48;7.50;;;5.43;;
55290;SDS011;41155;39.768;2.712;2024-03-02T10:50:14;7.47;;;4.95;;
55290;SDS011;41155;39.768;2.712;2024-03-02T10:52:40;10.18;;;5.05;;
55290;SDS011;41155;39.768;2.712;2024-03-02T10:55:06;8.30;;;5.13;;
55290;SDS011;41155;39.768;2.712;2024-03-02T10:57:52;6.60;;;4.80;;
55290;SDS011;41155;39.768;2.712;2024-03-02T11:00:19;7.38;;;5.10;;
55290;SDS011;41155;39.768;2.712;2024-03-02T11:03:03;8.63;;;5.65;;
55290;SDS011;41155;39.768;2.712;2024-03-02T11:05:36;10.40;;;4.97;;
55290;SDS011;41155;39.768;2.712;2024-03-02T11:08:07;7.97;;;4.65;;
55290;SDS011;41155;39.768;2.712;2024-03-02T11:10:37;7.95;;;5.32;;
55290;SDS011;41155;39.768;2.712;2024-03-02T11:13:12;6.10;;;4.63;;
55290;SDS011;41155;39.768;2.712;2024-03-02T11:15:39;9.63;;;5.80;;
55290;SDS011;41155;39.768;2.712;2024-03-02T11:18:08;7.97;;;4.70;;
55290;SDS011;41155;39.768;2.712;2024-03-02T11:20:38;7.18;;;4.25;;
55290;SDS011;41155;39.768;2.712;2024-03-02T11:23:06;25.15;;;5.35;;
55290;SDS011;41155;39.768;2.712;2024-03-02T11:25:32;4.65;;;4.22;;
55290;SDS011;41155;39.768;2.712;2024-03-02T11:28:07;7.07;;;4.90;;
55290;SDS011;41155;39.768;2.712;2024-03-02T11:33:03;6.80;;;4.65;;
55290;SDS011;41155;39.768;2.712;2024-03-02T11:35:36;10.57;;;4.57;;
55290;SDS011;41155;39.768;2.712;2024-03-02T11:38:02;6.65;;;4.65;;
55290;SDS011;41155;39.768;2.712;2024-03-02T11:40:28;9.40;;;4.78;;
55290;SDS011;41155;39.768;2.712;2024-03-02T11:42:55;18.90;;;4.38;;
55290;SDS011;41155;39.768;2.712;2024-03-02T11:45:24;8.88;;;7.15;;
55290;SDS011;41155;39.768;2.712;2024-03-02T11:47:50;7.55;;;5.30;;
55290;SDS011;41155;39.768;2.712;2024-03-02T11:50:35;5.43;;;4.93;;
55290;SDS011;41155;39.768;2.712;2024-03-02T11:53:07;14.75;;;5.05;;
55290;SDS011;41155;39.768;2.712;2024-03-02T11:55:37;10.20;;;5.20;;
55290;SDS011;41155;39.768;2.712;2024-03-02T11:58:05;10.90;;;6.18;;
55290;SDS011;41155;39.768;2.712;2024-03-02T12:00:30;6.60;;;4.68;;
55290;SDS011;41155;39.768;2.712;2024-03-02T12:02:59;10.85;;;5.50;;
55290;SDS011;41155;39.768;2.712;2024-03-02T12:05:37;11.13;;;4.55;;
55290;SDS011;41155;39.768;2.712;2024-03-02T12:08:03;9.68;;;5.15;;
55290;SDS011;41155;39.768;2.712;2024-03-02T12:10:31;13.65;;;5.30;;
55290;SDS011;41155;39.768;2.712;2024-03-02T12:13:01;9.82;;;5.38;;
55290;SDS011;41155;39.768;2.712;2024-03-02T12:15:32;9.63;;;5.82;;
55290;SDS011;41155;39.768;2.712;2024-03-02T12:18:00;7.15;;;5.20;;
55290;SDS011;41155;39.768;2.712;2024-03-02T12:20:27;6.57;;;5.28;;
55290;SDS011;41155;39.768;2.712;2024-03-02T12:22:54;11.68;;;6.35;;
55290;SDS011;41155;39.768;2.712;2024-03-02T12:25:22;14.00;;;5.50;;
55290;SDS011;41155;39.768;2.712;2024-03-02T12:27:49;17.17;;;6.00;;
55290;SDS011;41155;39.768;2.712;2024-03-02T12:30:16;7.30;;;5.13;;
55290;SDS011;41155;39.768;2.712;2024-03-02T12:32:43;11.18;;;5.40;;
55290;SDS011;41155;39.768;2.712;2024-03-02T12:35:12;7.57;;;4.97;;
55290;SDS011;41155;39.768;2.712;2024-03-02T12:37:44;13.77;;;6.00;;
55290;SDS011;41155;39.768;2.712;2024-03-02T12:40:11;8.10;;;5.30;;
55290;SDS011;41155;39.768;2.712;2024-03-02T12:42:38;9.52;;;6.10;;
55290;SDS011;41155;39.768;2.712;2024-03-02T12:45:04;10.80;;;5.47;;
55290;SDS011;41155;39.768;2.712;2024-03-02T12:47:34;10.15;;;5.40;;
55290;SDS011;41155;39.768;2.712;2024-03-02T12:50:00;10.10;;;5.05;;
55290;SDS011;41155;39.768;2.712;2024-03-02T12:52:26;8.50;;;6.13;;
55290;SDS011;41155;39.768;2.712;2024-03-02T12:54:52;8.38;;;4.97;;
55290;SDS011;41155;39.768;2.712;2024-03-02T12:57:22;18.30;;;5.60;;
55290;SDS011;41155;39.768;2.712;2024-03-02T12:59:50;7.43;;;5.32;;
55290;SDS011;41155;39.768;2.712;2024-03-02T13:02:19;10.43;;;5.05;;
55290;SDS011;41155;39.768;2.712;2024-03-02T13:04:51;7.30;;;5.43;;
55290;SDS011;41155;39.768;2.712;2024-03-02T13:09:45;10.88;;;4.40;;
55290;SDS011;41155;39.768;2.712;2024-03-02T13:12:11;8.90;;;5.22;;
55290;SDS011;41155;39.768;2.712;2024-03-02T13:14:36;9.18;;;5.30;;
55290;SDS011;41155;39.768;2.712;2024-03-02T13:17:02;12.95;;;5.60;;
55290;SDS011;41155;39.768;2.712;2024-03-02T13:19:30;8.25;;;5.50;;
55290;SDS011;41155;39.768;2.712;2024-03-02T13:21:56;16.27;;;6.20;;
55290;SDS011;41155;39.768;2.712;2024-03-02T13:24:22;12.25;;;5.38;;
55290;SDS011;41155;39.768;2.712;2024-03-02T13:26:50;6.93;;;5.18;;
55290;SDS011;41155;39.768;2.712;2024-03-02T13:29:20;7.55;;;5.18;;
55290;SDS011;41155;39.768;2.712;2024-03-02T13:31:46;11.05;;;5.50;;
55290;SDS011;41155;39.768;2.712;2024-03-02T13:34:12;6.80;;;5.75;;
55290;SDS011;41155;39.768;2.712;2024-03-02T13:36:37;7.22;;;4.78;;
55290;SDS011;41155;39.768;2.712;2024-03-02T13:39:03;9.50;;;5.18;;
55290;SDS011;41155;39.768;2.712;2024-03-02T13:41:31;12.50;;;5.47;;
55290;SDS011;41155;39.768;2.712;2024-03-02T13:43:57;15.02;;;6.85;;
55290;SDS011;41155;39.768;2.712;2024-03-02T13:46:26;8.02;;;5.38;;
55290;SDS011;41155;39.768;2.712;2024-03-02T13:48:51;8.55;;;5.82;;
55290;SDS011;41155;39.768;2.712;2024-03-02T13:51:17;18.17;;;6.30;;
55290;SDS011;41155;39.768;2.712;2024-03-02T13:53:42;12.10;;;6.55;;
55290;SDS011;41155;39.768;2.712;2024-03-02T13:56:08;12.52;;;6.15;;
55290;SDS011;41155;39.768;2.712;2024-03-02T13:58:34;10.13;;;6.15;;
55290;SDS011;41155;39.768;2.712;2024-03-02T14:00:59;12.27;;;5.55;;
55290;SDS011;41155;39.768;2.712;2024-03-02T14:03:26;13.98;;;6.32;;
55290;SDS011;41155;39.768;2.712;2024-03-02T14:05:52;15.35;;;5.90;;
55290;SDS011;41155;39.768;2.712;2024-03-02T14:08:18;11.52;;;6.32;;
55290;SDS011;41155;39.768;2.712;2024-03-02T14:10:44;11.63;;;6.20;;
55290;SDS011;41155;39.768;2.712;2024-03-02T14:13:09;10.02;;;5.55;;
55290;SDS011;41155;39.768;2.712;2024-03-02T14:15:35;11.73;;;5.88;;
55290;SDS011;41155;39.768;2.712;2024-03-02T14:18:03;8.85;;;6.50;;
55290;SDS011;41155;39.768;2.712;2024-03-02T14:20:29;11.05;;;6.43;;
55290;SDS011;41155;39.768;2.712;2024-03-02T14:22:55;9.27;;;5.93;;
55290;SDS011;41155;39.768;2.712;2024-03-02T14:25:20;15.57;;;8.23;;
55290;SDS011;41155;39.768;2.712;2024-03-02T14:27:46;10.40;;;6.15;;
55290;SDS011;41155;39.768;2.712;2024-03-02T14:30:12;12.85;;;6.43;;
55290;SDS011;41155;39.768;2.712;2024-03-02T14:32:38;8.07;;;6.20;;